createdAt,value
2018-12-04T00:00:58.887Z,984.70
2018-12-04T00:01:58.881Z,984.76
2018-12-04T00:02:58.869Z,984.78
2018-12-04T00:03:58.859Z,984.78
2018-12-04T00:04:58.852Z,984.78
2018-12-04T00:05:58.840Z,984.74
2018-12-04T00:06:58.836Z,984.77
2018-12-04T00:07:58.821Z,984.80
2018-12-04T00:08:58.813Z,984.78
2018-12-04T00:09:58.801Z,984.77
2018-12-04T00:10:58.792Z,984.77
2018-12-04T00:11:58.784Z,984.80
2018-12-04T00:12:58.772Z,984.78
2018-12-04T00:13:58.772Z,984.81
2018-12-04T00:14:58.768Z,984.78
2018-12-04T00:15:58.743Z,984.80
2018-12-04T00:16:58.742Z,984.81
2018-12-04T00:17:58.723Z,984.80
2018-12-04T00:18:58.714Z,984.84
2018-12-04T00:19:58.712Z,984.86
2018-12-04T00:20:58.694Z,984.89
2018-12-04T00:21:58.691Z,984.84
2018-12-04T00:22:58.719Z,984.91
2018-12-04T00:23:58.686Z,984.87
2018-12-04T00:24:58.655Z,984.91
2018-12-04T00:25:58.657Z,984.96
2018-12-04T00:26:58.637Z,985.02
2018-12-04T00:27:58.640Z,984.98
2018-12-04T00:28:58.618Z,985.01
2018-12-04T00:29:58.608Z,985.00
2018-12-04T00:30:58.599Z,985.00
2018-12-04T00:31:58.593Z,985.00
2018-12-04T00:32:58.584Z,984.90
2018-12-04T00:33:58.578Z,984.91
2018-12-04T00:34:58.556Z,985.00
2018-12-04T00:35:58.562Z,985.05
2018-12-04T00:46:08.599Z,985.07
2018-12-04T00:51:24.689Z,985.06
2018-12-04T00:52:24.663Z,985.07
2018-12-04T00:54:17.549Z,985.08
2018-12-04T00:55:17.533Z,985.08
2018-12-04T00:56:17.523Z,985.12
2018-12-04T00:57:17.515Z,985.18
2018-12-04T00:58:17.499Z,985.16
2018-12-04T00:59:17.491Z,985.20
2018-12-04T01:00:17.487Z,985.28
2018-12-04T01:01:17.474Z,985.26
2018-12-04T01:02:17.466Z,985.30
2018-12-04T01:03:17.459Z,985.28
2018-12-04T01:04:17.449Z,985.34
2018-12-04T01:05:17.437Z,985.39
2018-12-04T01:06:17.425Z,985.44
2018-12-04T01:07:17.408Z,985.41
2018-12-04T01:08:17.405Z,985.41
2018-12-04T01:09:17.395Z,985.48
2018-12-04T01:10:17.392Z,985.52
2018-12-04T01:11:17.375Z,985.52
2018-12-04T01:12:17.366Z,985.52
2018-12-04T01:13:17.360Z,985.55
2018-12-04T01:14:17.351Z,985.55
2018-12-04T01:15:17.343Z,985.56
2018-12-04T01:16:17.331Z,985.64
2018-12-04T01:17:17.319Z,985.58
2018-12-04T01:18:17.312Z,985.63
2018-12-04T01:19:17.298Z,985.60
2018-12-04T01:20:17.289Z,985.69
2018-12-04T01:21:17.280Z,985.71
2018-12-04T01:22:17.276Z,985.72
2018-12-04T01:23:17.260Z,985.76
2018-12-04T01:24:17.252Z,985.77
2018-12-04T01:25:17.244Z,985.83
2018-12-04T01:26:17.232Z,985.82
2018-12-04T01:27:17.223Z,985.81
2018-12-04T01:28:17.212Z,985.81
2018-12-04T01:29:17.207Z,985.81
2018-12-04T01:30:17.192Z,985.82
2018-12-04T01:31:17.188Z,985.89
2018-12-04T01:32:17.181Z,985.87
2018-12-04T01:33:17.170Z,985.87
2018-12-04T01:34:17.155Z,985.87
2018-12-04T01:35:17.146Z,985.83
2018-12-04T01:36:17.136Z,985.87
2018-12-04T01:37:17.128Z,985.94
2018-12-04T01:38:17.114Z,985.94
2018-12-04T01:39:17.104Z,985.89
2018-12-04T01:40:17.098Z,985.98
2018-12-04T01:41:17.084Z,986.01
2018-12-04T01:42:17.077Z,986.05
2018-12-04T01:43:17.068Z,986.10
2018-12-04T01:44:17.061Z,986.06
2018-12-04T01:45:17.072Z,986.06
2018-12-04T01:46:17.044Z,986.05
2018-12-04T01:47:17.031Z,986.08
2018-12-04T01:48:17.018Z,986.05
2018-12-04T01:49:17.008Z,986.04
2018-12-04T01:50:16.999Z,986.14
2018-12-04T01:51:17.002Z,986.11
2018-12-04T01:52:16.984Z,986.10
2018-12-04T01:53:16.971Z,986.07
2018-12-04T01:54:16.960Z,986.07
2018-12-04T01:55:16.954Z,986.09
2018-12-04T01:56:16.948Z,986.09
2018-12-04T01:57:16.936Z,986.08
2018-12-04T01:58:16.917Z,986.09
2018-12-04T01:59:16.915Z,986.11
2018-12-04T02:00:16.901Z,986.12
2018-12-04T02:01:16.912Z,986.11
2018-12-04T02:02:16.886Z,986.16
2018-12-04T02:03:16.874Z,986.12
2018-12-04T02:04:16.863Z,986.17
2018-12-04T02:05:16.855Z,986.19
2018-12-04T02:06:16.850Z,986.21
2018-12-04T02:07:16.838Z,986.28
2018-12-04T02:08:16.826Z,986.27
2018-12-04T02:09:16.820Z,986.30
2018-12-04T02:10:16.806Z,986.32
2018-12-04T02:11:16.800Z,986.34
2018-12-04T02:12:16.786Z,986.33
2018-12-04T02:13:16.777Z,986.43
2018-12-04T02:14:16.769Z,986.40
2018-12-04T02:15:16.761Z,986.46
2018-12-04T02:16:16.753Z,986.44
2018-12-04T02:17:16.741Z,986.42
2018-12-04T02:18:16.732Z,986.49
2018-12-04T02:19:16.720Z,986.51
2018-12-04T02:20:16.710Z,986.56
2018-12-04T02:21:16.702Z,986.51
2018-12-04T02:22:16.691Z,986.53
2018-12-04T02:23:16.680Z,986.55
2018-12-04T02:24:16.672Z,986.55
2018-12-04T02:25:16.661Z,986.56
2018-12-04T02:26:16.652Z,986.56
2018-12-04T02:27:16.643Z,986.57
2018-12-04T02:28:16.631Z,986.67
2018-12-04T02:29:16.623Z,986.61
2018-12-04T02:30:16.613Z,986.65
2018-12-04T02:31:16.610Z,986.72
2018-12-04T02:32:16.594Z,986.80
2018-12-04T02:33:16.584Z,986.71
2018-12-04T02:34:16.572Z,986.72
2018-12-04T02:35:16.562Z,986.78
2018-12-04T02:36:16.555Z,986.76
2018-12-04T02:37:16.544Z,986.75
2018-12-04T02:38:16.534Z,986.76
2018-12-04T02:39:16.527Z,986.79
2018-12-04T02:40:16.513Z,986.80
2018-12-04T02:41:16.509Z,986.80
2018-12-04T02:42:16.497Z,986.76
2018-12-04T02:43:16.490Z,986.83
2018-12-04T02:44:16.474Z,986.84
2018-12-04T02:45:16.469Z,986.92
2018-12-04T02:46:16.457Z,986.93
2018-12-04T02:47:16.453Z,986.94
2018-12-04T02:48:16.439Z,986.90
2018-12-04T02:49:16.430Z,986.87
2018-12-04T02:50:16.418Z,986.91
2018-12-04T02:51:16.413Z,986.97
2018-12-04T02:52:16.400Z,986.97
2018-12-04T02:53:16.390Z,986.96
2018-12-04T02:54:16.381Z,986.98
2018-12-04T02:55:16.376Z,986.94
2018-12-04T02:56:16.361Z,986.96
2018-12-04T02:57:16.352Z,986.98
2018-12-04T02:58:16.344Z,987.01
2018-12-04T02:59:16.331Z,987.06
2018-12-04T03:00:16.322Z,987.05
2018-12-04T03:01:16.312Z,987.03
2018-12-04T03:02:16.302Z,987.07
2018-12-04T03:03:16.296Z,987.11
2018-12-04T03:04:16.284Z,987.15
2018-12-04T03:05:16.283Z,987.12
2018-12-04T03:06:16.263Z,987.10
2018-12-04T03:07:16.254Z,987.08
2018-12-04T03:08:16.244Z,987.13
2018-12-04T03:09:16.239Z,987.17
2018-12-04T03:10:16.225Z,987.19
2018-12-04T03:11:16.214Z,987.24
2018-12-04T03:12:16.204Z,987.27
2018-12-04T03:13:16.198Z,987.32
2018-12-04T03:14:16.186Z,987.31
2018-12-04T03:15:16.175Z,987.31
2018-12-04T03:16:16.166Z,987.32
2018-12-04T03:17:16.158Z,987.41
2018-12-04T03:18:16.155Z,987.40
2018-12-04T03:19:16.140Z,987.43
2018-12-04T03:20:16.127Z,987.51
2018-12-04T03:21:16.120Z,987.46
2018-12-04T03:22:16.108Z,987.48
2018-12-04T03:23:16.101Z,987.50
2018-12-04T03:24:16.092Z,987.54
2018-12-04T03:25:16.080Z,987.57
2018-12-04T03:26:16.123Z,987.62
2018-12-04T03:27:16.058Z,987.62
2018-12-04T03:28:16.051Z,987.66
2018-12-04T03:29:16.042Z,987.68
2018-12-04T03:30:16.036Z,987.68
2018-12-04T03:31:16.024Z,987.69
2018-12-04T03:32:16.023Z,987.69
2018-12-04T03:33:16.000Z,987.73
2018-12-04T03:34:15.992Z,987.73
2018-12-04T03:35:15.992Z,987.70
2018-12-04T03:36:15.973Z,987.73
2018-12-04T03:37:15.969Z,987.72
2018-12-04T03:38:15.953Z,987.77
2018-12-04T03:39:15.944Z,987.78
2018-12-04T03:40:15.937Z,987.80
2018-12-04T03:41:15.924Z,987.82
2018-12-04T03:42:15.920Z,987.75
2018-12-04T03:43:15.906Z,987.77
2018-12-04T03:44:15.897Z,987.80
2018-12-04T03:45:15.884Z,987.81
2018-12-04T03:46:15.877Z,987.86
2018-12-04T03:47:15.872Z,987.82
2018-12-04T03:48:15.862Z,987.83
2018-12-04T03:49:15.849Z,987.83
2018-12-04T03:50:15.836Z,987.87
2018-12-04T03:51:15.825Z,987.94
2018-12-04T03:52:15.826Z,987.98
2018-12-04T03:53:15.808Z,987.98
2018-12-04T03:54:15.803Z,988.02
2018-12-04T03:55:15.789Z,988.00
2018-12-04T03:56:15.778Z,988.01
2018-12-04T03:57:15.773Z,988.05
2018-12-04T03:58:15.764Z,988.07
2018-12-04T03:59:15.749Z,988.07
2018-12-04T04:00:15.741Z,988.07
2018-12-04T04:01:15.728Z,988.10
2018-12-04T04:02:15.723Z,988.14
2018-12-04T04:03:15.709Z,988.15
2018-12-04T04:04:15.701Z,988.22
2018-12-04T04:05:15.692Z,988.21
2018-12-04T04:06:15.685Z,988.22
2018-12-04T04:07:15.696Z,988.25
2018-12-04T04:08:15.671Z,988.31
2018-12-04T04:09:15.655Z,988.32
2018-12-04T04:10:17.179Z,988.37
2018-12-04T04:11:15.632Z,988.35
2018-12-04T04:12:15.628Z,988.32
2018-12-04T04:13:15.617Z,988.34
2018-12-04T04:14:15.602Z,988.40
2018-12-04T04:15:15.592Z,988.39
2018-12-04T04:16:15.586Z,988.42
2018-12-04T04:17:15.576Z,988.40
2018-12-04T04:18:15.570Z,988.43
2018-12-04T04:19:15.557Z,988.40
2018-12-04T04:20:15.545Z,988.46
2018-12-04T04:21:15.542Z,988.47
2018-12-04T04:22:15.528Z,988.51
2018-12-04T04:23:15.518Z,988.50
2018-12-04T04:24:15.508Z,988.51
2018-12-04T04:25:15.500Z,988.53
2018-12-04T04:26:15.490Z,988.53
2018-12-04T04:27:15.477Z,988.56
2018-12-04T04:28:15.473Z,988.55
2018-12-04T04:29:15.459Z,988.59
2018-12-04T04:30:15.452Z,988.66
2018-12-04T04:31:15.441Z,988.65
2018-12-04T04:32:15.433Z,988.71
2018-12-04T04:33:15.419Z,988.72
2018-12-04T04:34:15.409Z,988.74
2018-12-04T04:35:15.400Z,988.82
2018-12-04T04:36:15.391Z,988.83
2018-12-04T04:37:15.383Z,988.88
2018-12-04T04:38:15.374Z,988.87
2018-12-04T04:39:15.362Z,988.87
2018-12-04T04:40:15.349Z,988.95
2018-12-04T04:41:15.356Z,988.96
2018-12-04T04:42:15.334Z,988.97
2018-12-04T04:43:15.327Z,989.06
2018-12-04T04:44:15.316Z,989.05
2018-12-04T04:45:15.363Z,989.05
2018-12-04T04:46:15.296Z,989.05
2018-12-04T04:47:15.284Z,989.09
2018-12-04T04:48:15.277Z,989.07
2018-12-04T04:49:15.266Z,989.10
2018-12-04T04:50:15.264Z,989.11
2018-12-04T04:51:15.252Z,989.20
2018-12-04T04:52:15.263Z,989.15
2018-12-04T04:53:15.238Z,989.19
2018-12-04T04:54:15.223Z,989.21
2018-12-04T04:55:15.207Z,989.25
2018-12-04T04:56:15.201Z,989.22
2018-12-04T04:57:15.191Z,989.23
2018-12-04T04:58:15.178Z,989.26
2018-12-04T04:59:15.169Z,989.26
2018-12-04T05:00:15.162Z,989.27
2018-12-04T05:01:15.147Z,989.31
2018-12-04T05:02:15.161Z,989.32
2018-12-04T05:03:15.131Z,989.34
2018-12-04T05:04:15.120Z,989.34
2018-12-04T05:05:15.112Z,989.39
2018-12-04T05:06:15.103Z,989.36
2018-12-04T05:07:15.090Z,989.40
2018-12-04T05:08:15.083Z,989.45
2018-12-04T05:09:15.080Z,989.48
2018-12-04T05:10:15.058Z,989.52
2018-12-04T05:11:15.052Z,989.56
2018-12-04T05:12:15.043Z,989.55
2018-12-04T05:13:15.033Z,989.53
2018-12-04T05:14:15.025Z,989.55
2018-12-04T05:15:15.013Z,989.56
2018-12-04T05:16:15.003Z,989.63
2018-12-04T05:17:14.997Z,989.62
2018-12-04T05:18:14.985Z,989.62
2018-12-04T05:19:14.973Z,989.63
2018-12-04T05:20:14.965Z,989.60
2018-12-04T05:21:14.955Z,989.61
2018-12-04T05:22:14.943Z,989.62
2018-12-04T05:23:14.934Z,989.60
2018-12-04T05:24:14.925Z,989.62
2018-12-04T05:25:14.917Z,989.63
2018-12-04T05:26:14.907Z,989.67
2018-12-04T05:27:14.896Z,989.67
2018-12-04T05:28:14.885Z,989.78
2018-12-04T05:29:14.876Z,989.79
2018-12-04T05:30:14.871Z,989.81
2018-12-04T05:31:14.857Z,989.83
2018-12-04T05:32:14.845Z,989.86
2018-12-04T05:33:14.844Z,989.81
2018-12-04T05:34:14.829Z,989.89
2018-12-04T05:35:14.822Z,989.87
2018-12-04T05:36:14.807Z,989.86
2018-12-04T05:37:14.798Z,989.94
2018-12-04T05:38:14.799Z,989.93
2018-12-04T05:39:14.781Z,989.98
2018-12-04T05:40:14.769Z,989.98
2018-12-04T05:41:14.759Z,990.02
2018-12-04T05:42:14.751Z,990.06
2018-12-04T05:43:14.748Z,990.09
2018-12-04T05:44:14.728Z,990.09
2018-12-04T05:45:14.720Z,990.14
2018-12-04T05:46:14.703Z,990.11
2018-12-04T05:47:14.700Z,990.14
2018-12-04T05:48:14.694Z,990.20
2018-12-04T05:49:14.680Z,990.22
2018-12-04T05:50:14.678Z,990.20
2018-12-04T05:51:14.658Z,990.21
2018-12-04T05:52:14.652Z,990.22
2018-12-04T05:53:14.639Z,990.20
2018-12-04T05:54:14.631Z,990.23
2018-12-04T05:55:14.622Z,990.20
2018-12-04T05:56:14.618Z,990.28
2018-12-04T05:57:14.606Z,990.33
2018-12-04T05:58:14.598Z,990.35
2018-12-04T05:59:14.583Z,990.37
2018-12-04T06:00:14.571Z,990.37
2018-12-04T06:01:14.562Z,990.39
2018-12-04T06:02:14.552Z,990.38
2018-12-04T06:03:14.550Z,990.40
2018-12-04T06:04:14.538Z,990.45
2018-12-04T06:05:14.529Z,990.51
2018-12-04T06:06:14.517Z,990.55
2018-12-04T06:07:14.505Z,990.60
2018-12-04T06:08:14.500Z,990.66
2018-12-04T06:09:14.489Z,990.67
2018-12-04T06:10:14.472Z,990.66
2018-12-04T06:11:14.462Z,990.71
2018-12-04T06:12:14.456Z,990.69
2018-12-04T06:13:14.441Z,990.76
2018-12-04T06:14:14.439Z,990.74
2018-12-04T06:15:14.427Z,990.72
2018-12-04T06:16:14.416Z,990.77
2018-12-04T06:17:14.417Z,990.76
2018-12-04T06:18:14.402Z,990.76
2018-12-04T06:19:14.393Z,990.79
2018-12-04T06:20:14.382Z,990.84
2018-12-04T06:21:14.369Z,990.88
2018-12-04T06:22:14.362Z,990.89
2018-12-04T06:23:14.354Z,990.93
2018-12-04T06:24:14.341Z,990.92
2018-12-04T06:25:14.340Z,990.93
2018-12-04T06:26:14.324Z,990.95
2018-12-04T06:27:14.312Z,990.97
2018-12-04T06:28:14.302Z,990.99
2018-12-04T06:29:14.300Z,991.01
2018-12-04T06:30:14.284Z,991.00
2018-12-04T06:31:14.268Z,991.01
2018-12-04T06:32:14.263Z,991.00
2018-12-04T06:33:14.254Z,991.06
2018-12-04T06:34:14.252Z,991.07
2018-12-04T06:35:14.234Z,991.13
2018-12-04T06:36:14.225Z,991.20
2018-12-04T06:37:14.219Z,991.22
2018-12-04T06:38:14.201Z,991.27
2018-12-04T06:39:14.195Z,991.29
2018-12-04T06:40:14.186Z,991.31
2018-12-04T06:41:14.177Z,991.36
2018-12-04T06:42:14.164Z,991.42
2018-12-04T06:43:14.162Z,991.46
2018-12-04T06:44:14.145Z,991.47
2018-12-04T06:45:14.138Z,991.50
2018-12-04T06:46:14.131Z,991.51
2018-12-04T06:47:14.118Z,991.54
2018-12-04T06:48:14.110Z,991.58
2018-12-04T06:49:14.099Z,991.62
2018-12-04T06:50:14.092Z,991.65
2018-12-04T06:51:14.082Z,991.67
2018-12-04T06:52:14.074Z,991.71
2018-12-04T06:53:14.059Z,991.75
2018-12-04T06:54:14.062Z,991.77
2018-12-04T06:55:14.042Z,991.81
2018-12-04T06:56:14.029Z,991.85
2018-12-04T06:57:14.021Z,991.87
2018-12-04T06:58:14.012Z,991.90
2018-12-04T06:59:14.001Z,991.94
2018-12-04T07:00:13.991Z,991.97
2018-12-04T07:01:13.984Z,991.99
2018-12-04T07:02:13.972Z,991.97
2018-12-04T07:03:13.966Z,992.01
2018-12-04T07:04:13.952Z,992.07
2018-12-04T07:05:13.944Z,992.13
2018-12-04T07:06:13.933Z,992.17
2018-12-04T07:07:13.923Z,992.22
2018-12-04T07:08:13.917Z,992.23
2018-12-04T07:09:13.903Z,992.23
2018-12-04T07:10:13.899Z,992.25
2018-12-04T07:11:13.889Z,992.28
2018-12-04T07:12:13.880Z,992.31
2018-12-04T07:13:13.867Z,992.34
2018-12-04T07:14:13.864Z,992.36
2018-12-04T07:15:13.847Z,992.42
2018-12-04T07:16:13.837Z,992.48
2018-12-04T07:17:13.828Z,992.46
2018-12-04T07:18:13.817Z,992.44
2018-12-04T07:19:13.810Z,992.44
2018-12-04T07:20:13.801Z,992.41
2018-12-04T07:21:13.790Z,992.38
2018-12-04T07:22:13.776Z,992.40
2018-12-04T07:23:13.769Z,992.45
2018-12-04T07:24:13.768Z,992.52
2018-12-04T07:25:13.749Z,992.58
2018-12-04T07:26:13.743Z,992.60
2018-12-04T07:27:13.732Z,992.60
2018-12-04T07:28:13.722Z,992.58
2018-12-04T07:29:13.718Z,992.60
2018-12-04T07:30:13.706Z,992.62
2018-12-04T07:31:13.693Z,992.67
2018-12-04T07:32:13.679Z,992.63
2018-12-04T07:33:13.669Z,992.68
2018-12-04T07:34:13.678Z,992.69
2018-12-04T07:35:13.655Z,992.74
2018-12-04T07:36:13.643Z,992.69
2018-12-04T07:37:13.632Z,992.75
2018-12-04T07:38:13.624Z,992.76
2018-12-04T07:39:13.618Z,992.78
2018-12-04T07:40:13.609Z,992.87
2018-12-04T07:41:13.597Z,992.88
2018-12-04T07:42:13.591Z,992.91
2018-12-04T07:43:13.587Z,992.95
2018-12-04T07:44:13.571Z,992.97
2018-12-04T07:45:13.560Z,993.04
2018-12-04T07:46:13.545Z,993.08
2018-12-04T07:47:13.537Z,993.07
2018-12-04T07:48:13.527Z,993.08
2018-12-04T07:49:13.518Z,993.11
2018-12-04T07:50:13.516Z,993.16
2018-12-04T07:51:13.502Z,993.17
2018-12-04T07:52:13.491Z,993.19
2018-12-04T07:53:13.477Z,993.22
2018-12-04T07:54:13.473Z,993.24
2018-12-04T07:55:13.459Z,993.26
2018-12-04T07:56:13.448Z,993.27
2018-12-04T07:57:13.442Z,993.28
2018-12-04T07:58:13.433Z,993.33
2018-12-04T07:59:13.421Z,993.36
2018-12-04T08:00:13.415Z,993.37
2018-12-04T08:01:13.403Z,993.41
2018-12-04T08:02:13.390Z,993.47
2018-12-04T08:03:13.383Z,993.49
2018-12-04T08:04:13.375Z,993.50
2018-12-04T08:05:13.363Z,993.55
2018-12-04T08:06:13.354Z,993.55
2018-12-04T08:07:13.342Z,993.60
2018-12-04T08:08:13.334Z,993.64
2018-12-04T08:09:13.325Z,993.70
2018-12-04T08:10:13.314Z,993.71
2018-12-04T08:11:13.304Z,993.72
2018-12-04T08:12:13.291Z,993.74
2018-12-04T08:13:13.280Z,993.76
2018-12-04T08:14:13.279Z,993.77
2018-12-04T08:15:13.266Z,993.84
2018-12-04T08:16:13.256Z,993.88
2018-12-04T08:17:13.244Z,993.92
2018-12-04T08:18:13.239Z,993.93
2018-12-04T08:19:13.228Z,993.92
2018-12-04T08:20:13.220Z,993.89
2018-12-04T08:21:13.211Z,993.89
2018-12-04T08:22:13.199Z,993.97
2018-12-04T08:23:13.186Z,993.96
2018-12-04T08:24:13.179Z,993.96
2018-12-04T08:25:13.177Z,993.89
2018-12-04T08:26:13.161Z,993.95
2018-12-04T08:27:13.152Z,993.97
2018-12-04T08:28:13.140Z,994.04
2018-12-04T08:29:13.132Z,994.08
2018-12-04T08:30:13.122Z,994.08
2018-12-04T08:31:13.110Z,994.15
2018-12-04T08:32:13.103Z,994.21
2018-12-04T08:33:13.090Z,994.23
2018-12-04T08:34:13.080Z,994.24
2018-12-04T08:35:13.082Z,994.27
2018-12-04T08:36:13.062Z,994.23
2018-12-04T08:37:13.051Z,994.24
2018-12-04T08:38:13.044Z,994.25
2018-12-04T08:39:13.288Z,994.28
2018-12-04T08:40:13.030Z,994.32
2018-12-04T08:41:13.016Z,994.37
2018-12-04T08:42:13.007Z,994.38
2018-12-04T08:43:12.994Z,994.40
2018-12-04T08:44:12.983Z,994.39
2018-12-04T08:45:12.983Z,994.41
2018-12-04T08:46:12.966Z,994.43
2018-12-04T08:47:12.958Z,994.43
2018-12-04T08:48:12.945Z,994.46
2018-12-04T08:49:12.936Z,994.48
2018-12-04T08:50:12.931Z,994.49
2018-12-04T08:51:12.934Z,994.51
2018-12-04T08:52:12.909Z,994.56
2018-12-04T08:53:12.895Z,994.52
2018-12-04T08:54:12.889Z,994.59
2018-12-04T08:55:12.885Z,994.61
2018-12-04T08:56:12.868Z,994.62
2018-12-04T08:57:12.864Z,994.61
2018-12-04T08:58:12.851Z,994.63
2018-12-04T08:59:12.841Z,994.66
2018-12-04T09:00:12.834Z,994.68
2018-12-04T09:01:12.824Z,994.68
2018-12-04T09:02:12.812Z,994.72
2018-12-04T09:03:12.801Z,994.75
2018-12-04T09:04:12.790Z,994.79
2018-12-04T09:05:12.837Z,994.84
2018-12-04T09:06:12.773Z,994.87
2018-12-04T09:07:12.763Z,994.92
2018-12-04T09:08:12.778Z,994.92
2018-12-04T09:09:12.746Z,994.96
2018-12-04T09:10:12.734Z,994.96
2018-12-04T09:11:12.725Z,994.97
2018-12-04T09:12:12.719Z,994.98
2018-12-04T09:13:12.706Z,994.98
2018-12-04T09:14:12.690Z,995.00
2018-12-04T09:15:12.690Z,995.03
2018-12-04T09:16:12.677Z,995.01
2018-12-04T09:17:12.665Z,995.04
2018-12-04T09:18:12.701Z,995.08
2018-12-04T09:19:12.651Z,995.08
2018-12-04T09:20:12.639Z,995.09
2018-12-04T09:21:12.640Z,995.10
2018-12-04T09:22:12.669Z,995.12
2018-12-04T09:23:12.623Z,995.16
2018-12-04T09:24:12.618Z,995.15
2018-12-04T09:25:12.628Z,995.20
2018-12-04T09:26:12.596Z,995.24
2018-12-04T09:27:12.574Z,995.25
2018-12-04T09:28:12.583Z,995.28
2018-12-04T09:29:12.580Z,995.30
2018-12-04T09:30:12.565Z,995.35
2018-12-04T09:31:12.532Z,995.36
2018-12-04T09:32:12.524Z,995.42
2018-12-04T09:33:12.508Z,995.46
2018-12-04T09:34:12.500Z,995.48
2018-12-04T09:35:12.495Z,995.52
2018-12-04T09:36:12.482Z,995.53
2018-12-04T09:37:12.474Z,995.58
2018-12-04T09:38:12.464Z,995.58
2018-12-04T09:39:12.454Z,995.62
2018-12-04T09:40:13.586Z,995.66
2018-12-04T09:41:12.440Z,995.64
2018-12-04T09:42:12.424Z,995.66
2018-12-04T09:43:12.420Z,995.68
2018-12-04T09:44:12.406Z,995.71
2018-12-04T09:45:12.393Z,995.67
2018-12-04T09:46:12.393Z,995.73
2018-12-04T09:47:12.375Z,995.74
2018-12-04T09:48:12.364Z,995.74
2018-12-04T09:49:12.360Z,995.77
2018-12-04T09:50:12.352Z,995.76
2018-12-04T09:51:12.333Z,995.79
2018-12-04T09:52:12.325Z,995.78
2018-12-04T09:53:12.318Z,995.81
2018-12-04T09:54:12.307Z,995.87
2018-12-04T09:55:12.297Z,995.89
2018-12-04T09:56:12.294Z,995.90
2018-12-04T09:57:12.278Z,995.92
2018-12-04T09:58:12.270Z,995.93
2018-12-04T09:59:12.281Z,995.94
2018-12-04T10:00:12.251Z,995.96
2018-12-04T10:01:12.246Z,995.95
2018-12-04T10:02:12.262Z,995.97
2018-12-04T10:03:12.214Z,996.01
2018-12-04T10:04:12.208Z,996.07
2018-12-04T10:05:12.260Z,996.07
2018-12-04T10:06:12.197Z,996.06
2018-12-04T10:07:12.182Z,996.05
2018-12-04T10:08:12.175Z,996.05
2018-12-04T10:09:12.164Z,996.01
2018-12-04T10:10:12.167Z,995.99
2018-12-04T10:11:12.146Z,996.03
2018-12-04T10:12:12.179Z,996.05
2018-12-04T10:13:12.123Z,996.08
2018-12-04T10:14:12.121Z,996.10
2018-12-04T10:15:12.109Z,996.17
2018-12-04T10:16:12.099Z,996.17
2018-12-04T10:17:12.086Z,996.15
2018-12-04T10:18:12.080Z,996.18
2018-12-04T10:19:12.069Z,996.15
2018-12-04T10:20:12.058Z,996.13
2018-12-04T10:21:12.051Z,996.18
2018-12-04T10:22:12.045Z,996.21
2018-12-04T10:23:12.030Z,996.24
2018-12-04T10:24:12.015Z,996.25
2018-12-04T10:25:12.009Z,996.28
2018-12-04T10:26:12.003Z,996.24
2018-12-04T10:27:11.990Z,996.25
2018-12-04T10:28:11.979Z,996.27
2018-12-04T10:29:11.972Z,996.28
2018-12-04T10:30:11.961Z,996.26
2018-12-04T10:31:11.950Z,996.27
2018-12-04T10:32:11.942Z,996.30
2018-12-04T10:33:11.929Z,996.33
2018-12-04T10:34:11.916Z,996.34
2018-12-04T10:35:11.911Z,996.35
2018-12-04T10:36:11.908Z,996.34
2018-12-04T10:37:11.904Z,996.31
2018-12-04T10:38:11.884Z,996.35
2018-12-04T10:39:11.871Z,996.40
2018-12-04T10:40:11.863Z,996.41
2018-12-04T10:41:11.855Z,996.38
2018-12-04T10:42:11.843Z,996.36
2018-12-04T10:43:11.835Z,996.39
2018-12-04T10:44:11.823Z,996.42
2018-12-04T10:45:11.814Z,996.44
2018-12-04T10:46:11.806Z,996.46
2018-12-04T10:47:11.795Z,996.48
2018-12-04T10:48:11.785Z,996.44
2018-12-04T10:49:11.777Z,996.46
2018-12-04T10:50:11.766Z,996.43
2018-12-04T10:51:11.762Z,996.42
2018-12-04T10:52:11.747Z,996.46
2018-12-04T10:53:11.731Z,996.45
2018-12-04T10:54:11.727Z,996.47
2018-12-04T10:55:11.716Z,996.54
2018-12-04T10:56:11.706Z,996.59
2018-12-04T10:57:11.699Z,996.57
2018-12-04T10:58:11.692Z,996.61
2018-12-04T10:59:11.680Z,996.58
2018-12-04T11:00:11.670Z,996.54
2018-12-04T11:01:11.658Z,996.63
2018-12-04T11:02:11.650Z,996.63
2018-12-04T11:03:11.641Z,996.68
2018-12-04T11:04:11.633Z,996.66
2018-12-04T11:05:11.623Z,996.68
2018-12-04T11:06:11.613Z,996.72
2018-12-04T11:07:11.608Z,996.74
2018-12-04T11:08:11.592Z,996.79
2018-12-04T11:09:11.576Z,996.76
2018-12-04T11:10:11.574Z,996.77
2018-12-04T11:11:11.566Z,996.78
2018-12-04T11:12:12.418Z,996.79
2018-12-04T11:13:11.549Z,996.80
2018-12-04T11:14:11.539Z,996.80
2018-12-04T11:15:11.525Z,996.87
2018-12-04T11:16:11.519Z,996.86
2018-12-04T11:17:11.509Z,996.90
2018-12-04T11:18:11.501Z,996.93
2018-12-04T11:19:11.487Z,996.92
2018-12-04T11:20:11.481Z,996.91
2018-12-04T11:21:11.466Z,996.92
2018-12-04T11:22:11.460Z,996.90
2018-12-04T11:23:11.453Z,996.91
2018-12-04T11:24:11.438Z,996.93
2018-12-04T11:25:11.431Z,996.98
2018-12-04T11:26:11.419Z,997.00
2018-12-04T11:27:11.412Z,997.01
2018-12-04T11:28:11.399Z,996.98
2018-12-04T11:29:11.389Z,996.99
2018-12-04T11:30:11.381Z,996.98
2018-12-04T11:31:11.371Z,997.02
2018-12-04T11:32:11.364Z,997.05
2018-12-04T11:33:11.353Z,997.05
2018-12-04T11:34:11.343Z,997.05
2018-12-04T11:35:11.334Z,997.09
2018-12-04T11:36:11.322Z,997.06
2018-12-04T11:37:11.316Z,997.04
2018-12-04T11:38:11.303Z,997.06
2018-12-04T11:39:11.294Z,997.08
2018-12-04T11:40:11.284Z,997.07
2018-12-04T11:41:11.275Z,997.07
2018-12-04T11:42:11.265Z,997.12
2018-12-04T11:43:11.256Z,997.15
2018-12-04T11:44:11.245Z,997.19
2018-12-04T11:45:11.237Z,997.24
2018-12-04T11:46:11.226Z,997.24
2018-12-04T11:47:11.219Z,997.28
2018-12-04T11:48:11.207Z,997.25
2018-12-04T11:49:11.195Z,997.28
2018-12-04T11:50:11.188Z,997.25
2018-12-04T11:51:11.179Z,997.31
2018-12-04T11:52:11.168Z,997.27
2018-12-04T11:53:11.158Z,997.28
2018-12-04T11:54:11.143Z,997.28
2018-12-04T11:55:11.141Z,997.23
2018-12-04T11:56:11.121Z,997.24
2018-12-04T11:57:11.123Z,997.29
2018-12-04T11:58:11.122Z,997.36
2018-12-04T11:59:11.101Z,997.35
2018-12-04T12:00:11.091Z,997.34
2018-12-04T12:01:11.082Z,997.36
2018-12-04T12:02:11.072Z,997.37
2018-12-04T12:03:11.063Z,997.41
2018-12-04T12:04:11.053Z,997.41
2018-12-04T12:05:11.044Z,997.48
2018-12-04T12:06:11.031Z,997.48
2018-12-04T12:07:11.029Z,997.48
2018-12-04T12:08:11.013Z,997.49
2018-12-04T12:09:11.004Z,997.55
2018-12-04T12:10:10.996Z,997.58
2018-12-04T12:11:10.980Z,997.61
2018-12-04T12:12:10.974Z,997.57
2018-12-04T12:13:10.967Z,997.59
2018-12-04T12:14:10.957Z,997.64
2018-12-04T12:15:10.949Z,997.65
2018-12-04T12:16:10.935Z,997.67
2018-12-04T12:17:10.926Z,997.68
2018-12-04T12:18:10.924Z,997.72
2018-12-04T12:19:10.907Z,997.74
2018-12-04T12:20:10.898Z,997.76
2018-12-04T12:21:10.888Z,997.80
2018-12-04T12:22:10.880Z,997.79
2018-12-04T12:23:10.874Z,997.77
2018-12-04T12:24:10.863Z,997.79
2018-12-04T12:25:10.850Z,997.78
2018-12-04T12:26:10.837Z,997.79
2018-12-04T12:27:10.829Z,997.79
2018-12-04T12:28:10.825Z,997.81
2018-12-04T12:29:10.813Z,997.80
2018-12-04T12:30:10.803Z,997.81
2018-12-04T12:31:10.791Z,997.85
2018-12-04T12:32:10.782Z,997.86
2018-12-04T12:33:10.777Z,997.86
2018-12-04T12:34:10.766Z,997.88
2018-12-04T12:35:10.754Z,997.88
2018-12-04T12:36:10.742Z,997.90
2018-12-04T12:37:10.732Z,997.91
2018-12-04T12:38:10.738Z,997.88
2018-12-04T12:39:10.715Z,997.92
2018-12-04T12:40:10.703Z,997.89
2018-12-04T12:41:10.694Z,997.90
2018-12-04T12:42:10.689Z,997.92
2018-12-04T12:43:10.681Z,997.91